sensor_id;sensor_type;location;lat;lon;timestamp;temperature;humidity
40053;DHT22;25758;48.200;16.338;2023-05-07T00:01:50;16.20;99.90
40053;DHT22;25758;48.200;16.338;2023-05-07T00:04:15;16.10;99.90
40053;DHT22;25758;48.200;16.338;2023-05-07T00:06:41;16.10;99.90
40053;DHT22;25758;48.200;16.338;2023-05-07T00:09:07;16.00;99.90
40053;DHT22;25758;48.200;16.338;2023-05-07T00:11:33;16.10;99.90
40053;DHT22;25758;48.200;16.338;2023-05-07T00:13:59;16.10;99.90
40053;DHT22;25758;48.200;16.338;2023-05-07T00:16:25;16.10;99.90
40053;DHT22;25758;48.200;16.338;2023-05-07T00:18:50;16.10;99.90
40053;DHT22;25758;48.200;16.338;2023-05-07T00:21:16;16.10;99.90
40053;DHT22;25758;48.200;16.338;2023-05-07T00:23:42;16.20;99.90
40053;DHT22;25758;48.200;16.338;2023-05-07T00:26:07;16.20;99.90
40053;DHT22;25758;48.200;16.338;2023-05-07T00:28:33;16.20;99.90
40053;DHT22;25758;48.200;16.338;2023-05-07T00:30:58;16.20;99.90
40053;DHT22;25758;48.200;16.338;2023-05-07T00:33:24;16.20;99.90
40053;DHT22;25758;48.200;16.338;2023-05-07T00:35:52;16.30;99.90
40053;DHT22;25758;48.200;16.338;2023-05-07T00:38:17;16.20;99.90
40053;DHT22;25758;48.200;16.338;2023-05-07T00:40:43;16.20;99.90
40053;DHT22;25758;48.200;16.338;2023-05-07T00:43:08;16.30;99.90
40053;DHT22;25758;48.200;16.338;2023-05-07T00:45:34;16.30;99.90
40053;DHT22;25758;48.200;16.338;2023-05-07T00:48:01;16.30;99.90
40053;DHT22;25758;48.200;16.338;2023-05-07T00:50:27;16.30;99.90
40053;DHT22;25758;48.200;16.338;2023-05-07T00:52:54;16.30;99.90
40053;DHT22;25758;48.200;16.338;2023-05-07T00:55:21;16.30;99.90
40053;DHT22;25758;48.200;16.338;2023-05-07T00:57:47;16.30;99.90
40053;DHT22;25758;48.200;16.338;2023-05-07T01:00:13;16.20;99.90
40053;DHT22;25758;48.200;16.338;2023-05-07T01:02:39;16.20;99.90
40053;DHT22;25758;48.200;16.338;2023-05-07T01:05:06;16.20;99.90
40053;DHT22;25758;48.200;16.338;2023-05-07T01:07:33;16.10;99.90
40053;DHT22;25758;48.200;16.338;2023-05-07T01:12:27;16.20;99.90
40053;DHT22;25758;48.200;16.338;2023-05-07T01:14:53;16.10;99.90
40053;DHT22;25758;48.200;16.338;2023-05-07T01:17:19;16.10;99.90
40053;DHT22;25758;48.200;16.338;2023-05-07T01:19:45;16.20;99.90
40053;DHT22;25758;48.200;16.338;2023-05-07T01:22:11;16.10;99.90
40053;DHT22;25758;48.200;16.338;2023-05-07T01:24:38;16.10;99.90
40053;DHT22;25758;48.200;16.338;2023-05-07T01:27:04;16.10;99.90
40053;DHT22;25758;48.200;16.338;2023-05-07T01:29:30;16.00;99.90
40053;DHT22;25758;48.200;16.338;2023-05-07T01:32:00;16.00;99.90
40053;DHT22;25758;48.200;16.338;2023-05-07T01:34:29;16.00;99.90
40053;DHT22;25758;48.200;16.338;2023-05-07T01:36:56;16.00;99.90
40053;DHT22;25758;48.200;16.338;2023-05-07T01:39:27;15.90;99.90
40053;DHT22;25758;48.200;16.338;2023-05-07T01:41:55;15.90;99.90
40053;DHT22;25758;48.200;16.338;2023-05-07T01:44:22;15.90;99.90
40053;DHT22;25758;48.200;16.338;2023-05-07T01:46:49;15.90;99.90
40053;DHT22;25758;48.200;16.338;2023-05-07T01:49:15;15.90;99.90
40053;DHT22;25758;48.200;16.338;2023-05-07T01:51:41;15.90;99.90
40053;DHT22;25758;48.200;16.338;2023-05-07T01:54:08;15.90;99.90
40053;DHT22;25758;48.200;16.338;2023-05-07T01:56:33;16.00;99.90
40053;DHT22;25758;48.200;16.338;2023-05-07T01:58:59;15.90;99.90
40053;DHT22;25758;48.200;16.338;2023-05-07T02:01:25;15.90;99.90
40053;DHT22;25758;48.200;16.338;2023-05-07T02:03:50;15.90;99.90
40053;DHT22;25758;48.200;16.338;2023-05-07T02:06:16;15.90;99.90
40053;DHT22;25758;48.200;16.338;2023-05-07T02:08:42;15.90;99.90
40053;DHT22;25758;48.200;16.338;2023-05-07T02:11:07;15.90;99.90
40053;DHT22;25758;48.200;16.338;2023-05-07T02:13:34;15.90;99.90
40053;DHT22;25758;48.200;16.338;2023-05-07T02:16:03;15.90;99.90
40053;DHT22;25758;48.200;16.338;2023-05-07T02:18:28;15.90;99.90
40053;DHT22;25758;48.200;16.338;2023-05-07T02:20:54;15.90;99.90
40053;DHT22;25758;48.200;16.338;2023-05-07T02:23:20;15.90;99.90
40053;DHT22;25758;48.200;16.338;2023-05-07T02:25:45;15.90;99.90
40053;DHT22;25758;48.200;16.338;2023-05-07T02:28:11;16.00;99.90
40053;DHT22;25758;48.200;16.338;2023-05-07T02:30:38;16.00;99.90
40053;DHT22;25758;48.200;16.338;2023-05-07T02:33:03;15.90;99.90
40053;DHT22;25758;48.200;16.338;2023-05-07T02:35:29;15.90;99.90
40053;DHT22;25758;48.200;16.338;2023-05-07T02:37:55;15.90;99.90
40053;DHT22;25758;48.200;16.338;2023-05-07T02:40:20;15.90;99.90
40053;DHT22;25758;48.200;16.338;2023-05-07T02:42:46;15.90;99.90
40053;DHT22;25758;48.200;16.338;2023-05-07T02:45:12;15.90;99.90
40053;DHT22;25758;48.200;16.338;2023-05-07T02:47:37;15.90;99.90
40053;DHT22;25758;48.200;16.338;2023-05-07T02:50:03;15.90;99.90
40053;DHT22;25758;48.200;16.338;2023-05-07T02:52:29;15.80;99.90
40053;DHT22;25758;48.200;16.338;2023-05-07T02:54:55;15.80;99.90
40053;DHT22;25758;48.200;16.338;2023-05-07T02:57:20;15.80;99.90
40053;DHT22;25758;48.200;16.338;2023-05-07T02:59:46;15.80;99.90
40053;DHT22;25758;48.200;16.338;2023-05-07T03:02:11;15.80;99.90
40053;DHT22;25758;48.200;16.338;2023-05-07T03:04:40;15.80;99.90
40053;DHT22;25758;48.200;16.338;2023-05-07T03:07:06;15.80;99.90
40053;DHT22;25758;48.200;16.338;2023-05-07T03:09:31;15.80;99.90
40053;DHT22;25758;48.200;16.338;2023-05-07T03:11:57;15.70;99.90
40053;DHT22;25758;48.200;16.338;2023-05-07T03:14:23;15.70;99.90
40053;DHT22;25758;48.200;16.338;2023-05-07T03:16:49;15.70;99.90
40053;DHT22;25758;48.200;16.338;2023-05-07T03:19:15;15.70;99.90
40053;DHT22;25758;48.200;16.338;2023-05-07T03:21:41;15.60;99.90
40053;DHT22;25758;48.200;16.338;2023-05-07T03:24:06;15.50;99.90
40053;DHT22;25758;48.200;16.338;2023-05-07T03:26:32;15.60;99.90
40053;DHT22;25758;48.200;16.338;2023-05-07T03:28:58;15.50;99.90
40053;DHT22;25758;48.200;16.338;2023-05-07T03:31:23;15.50;99.90
40053;DHT22;25758;48.200;16.338;2023-05-07T03:33:53;15.50;99.90
40053;DHT22;25758;48.200;16.338;2023-05-07T03:36:19;15.50;99.90
40053;DHT22;25758;48.200;16.338;2023-05-07T03:38:45;15.50;99.90
40053;DHT22;25758;48.200;16.338;2023-05-07T03:41:11;15.50;99.90
40053;DHT22;25758;48.200;16.338;2023-05-07T03:43:37;15.40;99.90
40053;DHT22;25758;48.200;16.338;2023-05-07T03:46:03;15.40;99.90
40053;DHT22;25758;48.200;16.338;2023-05-07T03:48:28;15.40;99.90
40053;DHT22;25758;48.200;16.338;2023-05-07T03:50:57;15.40;99.90
40053;DHT22;25758;48.200;16.338;2023-05-07T03:53:22;15.40;99.90
40053;DHT22;25758;48.200;16.338;2023-05-07T03:55:48;15.40;99.90
40053;DHT22;25758;48.200;16.338;2023-05-07T03:58:14;15.40;99.90
40053;DHT22;25758;48.200;16.338;2023-05-07T04:00:40;15.40;99.90
40053;DHT22;25758;48.200;16.338;2023-05-07T04:03:06;15.40;99.90
40053;DHT22;25758;48.200;16.338;2023-05-07T04:05:32;15.40;99.90
40053;DHT22;25758;48.200;16.338;2023-05-07T04:07:59;15.40;99.90
40053;DHT22;25758;48.200;16.338;2023-05-07T04:10:25;15.40;99.90
40053;DHT22;25758;48.200;16.338;2023-05-07T04:12:50;15.50;99.90
40053;DHT22;25758;48.200;16.338;2023-05-07T04:15:16;15.40;99.90
40053;DHT22;25758;48.200;16.338;2023-05-07T04:17:42;15.40;99.90
40053;DHT22;25758;48.200;16.338;2023-05-07T04:20:16;15.40;99.90
40053;DHT22;25758;48.200;16.338;2023-05-07T04:22:42;15.50;99.90
40053;DHT22;25758;48.200;16.338;2023-05-07T04:25:09;15.50;99.90
40053;DHT22;25758;48.200;16.338;2023-05-07T04:27:35;15.50;99.90
40053;DHT22;25758;48.200;16.338;2023-05-07T04:30:02;15.50;99.90
40053;DHT22;25758;48.200;16.338;2023-05-07T04:32:28;15.50;99.90
40053;DHT22;25758;48.200;16.338;2023-05-07T04:34:55;15.50;99.90
40053;DHT22;25758;48.200;16.338;2023-05-07T04:37:21;15.50;99.90
40053;DHT22;25758;48.200;16.338;2023-05-07T04:39:46;15.50;99.90
40053;DHT22;25758;48.200;16.338;2023-05-07T04:42:17;15.50;99.90
40053;DHT22;25758;48.200;16.338;2023-05-07T04:44:44;15.50;99.90
40053;DHT22;25758;48.200;16.338;2023-05-07T04:47:10;15.50;99.90
40053;DHT22;25758;48.200;16.338;2023-05-07T04:49:36;15.60;99.90
40053;DHT22;25758;48.200;16.338;2023-05-07T04:52:02;15.50;99.90
40053;DHT22;25758;48.200;16.338;2023-05-07T04:54:28;15.60;99.90
40053;DHT22;25758;48.200;16.338;2023-05-07T04:56:54;15.60;99.90
40053;DHT22;25758;48.200;16.338;2023-05-07T04:59:20;15.60;99.90
40053;DHT22;25758;48.200;16.338;2023-05-07T05:01:46;15.60;99.90
40053;DHT22;25758;48.200;16.338;2023-05-07T05:04:12;15.70;99.90
40053;DHT22;25758;48.200;16.338;2023-05-07T05:06:38;15.70;99.90
40053;DHT22;25758;48.200;16.338;2023-05-07T05:09:04;15.70;99.90
40053;DHT22;25758;48.200;16.338;2023-05-07T05:11:30;15.70;99.90
40053;DHT22;25758;48.200;16.338;2023-05-07T05:13:56;15.80;99.90
40053;DHT22;25758;48.200;16.338;2023-05-07T05:16:22;15.80;99.90
40053;DHT22;25758;48.200;16.338;2023-05-07T05:18:47;15.80;99.90
40053;DHT22;25758;48.200;16.338;2023-05-07T05:21:13;15.80;99.90
40053;DHT22;25758;48.200;16.338;2023-05-07T05:23:38;15.80;99.90
40053;DHT22;25758;48.200;16.338;2023-05-07T05:26:04;15.90;99.90
40053;DHT22;25758;48.200;16.338;2023-05-07T05:28:30;15.90;99.90
40053;DHT22;25758;48.200;16.338;2023-05-07T05:30:55;15.90;99.90
40053;DHT22;25758;48.200;16.338;2023-05-07T05:33:21;15.90;99.90
40053;DHT22;25758;48.200;16.338;2023-05-07T05:35:47;16.00;99.90
40053;DHT22;25758;48.200;16.338;2023-05-07T05:38:13;16.00;99.90
40053;DHT22;25758;48.200;16.338;2023-05-07T05:40:38;16.00;99.90
40053;DHT22;25758;48.200;16.338;2023-05-07T05:43:04;16.00;99.90
40053;DHT22;25758;48.200;16.338;2023-05-07T05:45:29;16.00;99.90
40053;DHT22;25758;48.200;16.338;2023-05-07T05:47:56;16.10;99.90
40053;DHT22;25758;48.200;16.338;2023-05-07T05:50:22;16.10;99.90
40053;DHT22;25758;48.200;16.338;2023-05-07T05:52:47;16.20;99.90
40053;DHT22;25758;48.200;16.338;2023-05-07T05:55:13;16.20;99.90
40053;DHT22;25758;48.200;16.338;2023-05-07T05:57:39;16.20;99.90
40053;DHT22;25758;48.200;16.338;2023-05-07T06:00:06;16.20;99.90
40053;DHT22;25758;48.200;16.338;2023-05-07T06:02:32;16.30;99.90
40053;DHT22;25758;48.200;16.338;2023-05-07T06:04:57;16.30;99.90
40053;DHT22;25758;48.200;16.338;2023-05-07T06:07:23;16.40;99.90
40053;DHT22;25758;48.200;16.338;2023-05-07T06:09:49;16.30;99.90
40053;DHT22;25758;48.200;16.338;2023-05-07T06:12:14;16.30;99.90
40053;DHT22;25758;48.200;16.338;2023-05-07T06:14:40;16.40;99.90
40053;DHT22;25758;48.200;16.338;2023-05-07T06:17:07;16.40;99.90
40053;DHT22;25758;48.200;16.338;2023-05-07T06:19:33;16.40;99.90
40053;DHT22;25758;48.200;16.338;2023-05-07T06:21:58;16.50;99.90
40053;DHT22;25758;48.200;16.338;2023-05-07T06:24:26;16.50;99.90
40053;DHT22;25758;48.200;16.338;2023-05-07T06:29:18;16.60;99.90
40053;DHT22;25758;48.200;16.338;2023-05-07T06:31:44;16.60;99.90
40053;DHT22;25758;48.200;16.338;2023-05-07T06:34:10;16.60;99.90
40053;DHT22;25758;48.200;16.338;2023-05-07T06:36:42;16.70;99.90
40053;DHT22;25758;48.200;16.338;2023-05-07T06:39:07;16.70;99.90
40053;DHT22;25758;48.200;16.338;2023-05-07T06:41:33;16.70;99.90
40053;DHT22;25758;48.200;16.338;2023-05-07T06:43:59;16.80;99.90
40053;DHT22;25758;48.200;16.338;2023-05-07T06:46:25;16.80;99.90
40053;DHT22;25758;48.200;16.338;2023-05-07T06:48:51;16.90;99.90
40053;DHT22;25758;48.200;16.338;2023-05-07T06:51:17;16.90;99.90
40053;DHT22;25758;48.200;16.338;2023-05-07T06:53:43;16.90;99.90
40053;DHT22;25758;48.200;16.338;2023-05-07T06:56:08;17.00;99.90
40053;DHT22;25758;48.200;16.338;2023-05-07T06:58:34;17.10;99.90
40053;DHT22;25758;48.200;16.338;2023-05-07T07:00:59;17.00;99.90
40053;DHT22;25758;48.200;16.338;2023-05-07T07:03:25;17.10;99.90
40053;DHT22;25758;48.200;16.338;2023-05-07T07:05:54;17.10;99.90
40053;DHT22;25758;48.200;16.338;2023-05-07T07:08:21;17.00;99.90
40053;DHT22;25758;48.200;16.338;2023-05-07T07:10:47;17.10;99.90
40053;DHT22;25758;48.200;16.338;2023-05-07T07:13:13;17.10;99.90
40053;DHT22;25758;48.200;16.338;2023-05-07T07:15:39;17.20;99.90
40053;DHT22;25758;48.200;16.338;2023-05-07T07:18:05;17.30;99.90
40053;DHT22;25758;48.200;16.338;2023-05-07T07:20:31;17.30;99.90
40053;DHT22;25758;48.200;16.338;2023-05-07T07:22:57;17.40;99.90
40053;DHT22;25758;48.200;16.338;2023-05-07T07:25:22;17.50;99.90
40053;DHT22;25758;48.200;16.338;2023-05-07T07:27:49;17.60;99.90
40053;DHT22;25758;48.200;16.338;2023-05-07T07:30:14;17.70;99.90
40053;DHT22;25758;48.200;16.338;2023-05-07T07:32:40;17.80;99.90
40053;DHT22;25758;48.200;16.338;2023-05-07T07:35:06;18.00;99.90
40053;DHT22;25758;48.200;16.338;2023-05-07T07:37:32;18.00;99.90
40053;DHT22;25758;48.200;16.338;2023-05-07T07:39:58;18.10;99.90
40053;DHT22;25758;48.200;16.338;2023-05-07T07:42:23;18.20;99.90
40053;DHT22;25758;48.200;16.338;2023-05-07T07:44:49;18.10;99.90
40053;DHT22;25758;48.200;16.338;2023-05-07T07:47:15;18.20;99.90
40053;DHT22;25758;48.200;16.338;2023-05-07T07:49:40;18.20;99.90
40053;DHT22;25758;48.200;16.338;2023-05-07T07:52:06;18.10;99.90
40053;DHT22;25758;48.200;16.338;2023-05-07T07:54:31;18.00;99.90
40053;DHT22;25758;48.200;16.338;2023-05-07T07:56:58;18.00;99.90
40053;DHT22;25758;48.200;16.338;2023-05-07T07:59:23;17.90;99.90
40053;DHT22;25758;48.200;16.338;2023-05-07T08:01:49;17.90;99.90
40053;DHT22;25758;48.200;16.338;2023-05-07T08:04:15;17.80;99.90
40053;DHT22;25758;48.200;16.338;2023-05-07T08:06:41;17.90;99.90
40053;DHT22;25758;48.200;16.338;2023-05-07T08:09:07;17.90;99.90
40053;DHT22;25758;48.200;16.338;2023-05-07T08:11:33;18.00;99.90
40053;DHT22;25758;48.200;16.338;2023-05-07T08:13:59;18.20;99.90
40053;DHT22;25758;48.200;16.338;2023-05-07T08:16:25;18.30;99.90
40053;DHT22;25758;48.200;16.338;2023-05-07T08:18:51;18.40;99.90
40053;DHT22;25758;48.200;16.338;2023-05-07T08:21:17;18.60;99.90
40053;DHT22;25758;48.200;16.338;2023-05-07T08:23:42;18.70;99.90
40053;DHT22;25758;48.200;16.338;2023-05-07T08:26:08;18.70;99.90
40053;DHT22;25758;48.200;16.338;2023-05-07T08:28:34;18.70;99.90
40053;DHT22;25758;48.200;16.338;2023-05-07T08:31:00;18.70;99.90
40053;DHT22;25758;48.200;16.338;2023-05-07T08:33:26;18.70;99.90
40053;DHT22;25758;48.200;16.338;2023-05-07T08:35:52;18.60;99.90
40053;DHT22;25758;48.200;16.338;2023-05-07T08:38:17;18.60;99.90
40053;DHT22;25758;48.200;16.338;2023-05-07T08:40:43;18.60;99.90
40053;DHT22;25758;48.200;16.338;2023-05-07T08:43:14;18.50;99.90
40053;DHT22;25758;48.200;16.338;2023-05-07T08:45:41;18.50;99.90
40053;DHT22;25758;48.200;16.338;2023-05-07T08:48:14;18.50;99.90
40053;DHT22;25758;48.200;16.338;2023-05-07T08:50:40;18.50;99.90
40053;DHT22;25758;48.200;16.338;2023-05-07T08:53:06;18.60;99.90
40053;DHT22;25758;48.200;16.338;2023-05-07T08:55:32;18.50;99.90
40053;DHT22;25758;48.200;16.338;2023-05-07T08:57:59;18.60;99.90
40053;DHT22;25758;48.200;16.338;2023-05-07T09:00:25;18.60;99.90
40053;DHT22;25758;48.200;16.338;2023-05-07T09:02:53;18.60;99.90
40053;DHT22;25758;48.200;16.338;2023-05-07T09:05:19;18.70;99.90
40053;DHT22;25758;48.200;16.338;2023-05-07T09:07:45;18.70;99.90
40053;DHT22;25758;48.200;16.338;2023-05-07T09:10:12;18.90;99.90
40053;DHT22;25758;48.200;16.338;2023-05-07T09:12:39;19.00;99.90
40053;DHT22;25758;48.200;16.338;2023-05-07T09:15:05;19.00;99.90
40053;DHT22;25758;48.200;16.338;2023-05-07T09:17:31;19.10;99.90
40053;DHT22;25758;48.200;16.338;2023-05-07T09:20:02;19.30;99.90
40053;DHT22;25758;48.200;16.338;2023-05-07T09:22:31;19.50;99.90
40053;DHT22;25758;48.200;16.338;2023-05-07T09:24:57;19.60;99.90
40053;DHT22;25758;48.200;16.338;2023-05-07T09:27:23;19.70;99.90
40053;DHT22;25758;48.200;16.338;2023-05-07T09:29:48;19.90;99.90
40053;DHT22;25758;48.200;16.338;2023-05-07T09:32:14;20.00;99.90
40053;DHT22;25758;48.200;16.338;2023-05-07T09:34:41;19.90;99.90
40053;DHT22;25758;48.200;16.338;2023-05-07T09:37:07;20.00;99.90
40053;DHT22;25758;48.200;16.338;2023-05-07T09:39:48;19.90;99.90
40053;DHT22;25758;48.200;16.338;2023-05-07T09:42:15;19.90;99.90
40053;DHT22;25758;48.200;16.338;2023-05-07T09:44:41;19.90;99.90
40053;DHT22;25758;48.200;16.338;2023-05-07T09:47:08;20.00;99.90
40053;DHT22;25758;48.200;16.338;2023-05-07T09:49:37;20.10;99.90
40053;DHT22;25758;48.200;16.338;2023-05-07T09:52:04;20.20;99.90
40053;DHT22;25758;48.200;16.338;2023-05-07T09:54:35;20.20;99.90
40053;DHT22;25758;48.200;16.338;2023-05-07T09:57:04;20.20;99.90
40053;DHT22;25758;48.200;16.338;2023-05-07T09:59:31;20.30;99.90
40053;DHT22;25758;48.200;16.338;2023-05-07T10:01:59;20.30;99.90
40053;DHT22;25758;48.200;16.338;2023-05-07T10:04:26;20.60;99.90
40053;DHT22;25758;48.200;16.338;2023-05-07T10:06:52;20.80;99.90
40053;DHT22;25758;48.200;16.338;2023-05-07T10:09:19;21.00;99.90
40053;DHT22;25758;48.200;16.338;2023-05-07T10:11:45;21.20;99.90
40053;DHT22;25758;48.200;16.338;2023-05-07T10:14:11;21.40;99.40
40053;DHT22;25758;48.200;16.338;2023-05-07T10:16:37;21.50;98.80
40053;DHT22;25758;48.200;16.338;2023-05-07T10:19:03;21.70;98.70
40053;DHT22;25758;48.200;16.338;2023-05-07T10:21:30;21.90;98.10
40053;DHT22;25758;48.200;16.338;2023-05-07T10:24:01;21.90;98.00
40053;DHT22;25758;48.200;16.338;2023-05-07T10:26:30;22.00;97.70
40053;DHT22;25758;48.200;16.338;2023-05-07T10:29:02;22.20;97.80
40053;DHT22;25758;48.200;16.338;2023-05-07T10:31:42;22.30;96.60
40053;DHT22;25758;48.200;16.338;2023-05-07T10:34:13;22.30;96.60
40053;DHT22;25758;48.200;16.338;2023-05-07T10:36:40;22.50;96.70
40053;DHT22;25758;48.200;16.338;2023-05-07T10:39:06;22.50;96.30
40053;DHT22;25758;48.200;16.338;2023-05-07T10:41:32;22.40;96.40
40053;DHT22;25758;48.200;16.338;2023-05-07T10:43:57;22.30;96.50
40053;DHT22;25758;48.200;16.338;2023-05-07T10:46:26;22.30;96.80
40053;DHT22;25758;48.200;16.338;2023-05-07T10:51:32;22.20;96.10
40053;DHT22;25758;48.200;16.338;2023-05-07T10:56:41;22.00;96.60
40053;DHT22;25758;48.200;16.338;2023-05-07T11:02:05;21.90;96.40
40053;DHT22;25758;48.200;16.338;2023-05-07T11:04:32;21.90;96.20
40053;DHT22;25758;48.200;16.338;2023-05-07T11:09:54;21.90;96.60
40053;DHT22;25758;48.200;16.338;2023-05-07T11:15:04;21.80;96.30
40053;DHT22;25758;48.200;16.338;2023-05-07T11:17:31;21.70;96.40
40053;DHT22;25758;48.200;16.338;2023-05-07T11:20:00;21.80;97.00
40053;DHT22;25758;48.200;16.338;2023-05-07T11:25:05;21.90;96.80
40053;DHT22;25758;48.200;16.338;2023-05-07T11:27:31;22.00;96.40
40053;DHT22;25758;48.200;16.338;2023-05-07T11:29:58;22.00;96.10
40053;DHT22;25758;48.200;16.338;2023-05-07T11:32:24;22.00;96.10
40053;DHT22;25758;48.200;16.338;2023-05-07T11:34:54;22.00;95.90
40053;DHT22;25758;48.200;16.338;2023-05-07T11:37:21;22.00;95.80
40053;DHT22;25758;48.200;16.338;2023-05-07T11:39:46;22.00;95.50
40053;DHT22;25758;48.200;16.338;2023-05-07T11:42:32;22.00;95.10
40053;DHT22;25758;48.200;16.338;2023-05-07T11:44:58;22.00;95.20
40053;DHT22;25758;48.200;16.338;2023-05-07T11:47:24;22.00;95.10
40053;DHT22;25758;48.200;16.338;2023-05-07T11:49:54;21.90;95.40
40053;DHT22;25758;48.200;16.338;2023-05-07T11:52:21;21.80;95.10
40053;DHT22;25758;48.200;16.338;2023-05-07T11:54:55;21.70;94.90
40053;DHT22;25758;48.200;16.338;2023-05-07T11:57:22;21.70;95.40
40053;DHT22;25758;48.200;16.338;2023-05-07T11:59:52;21.70;95.30
40053;DHT22;25758;48.200;16.338;2023-05-07T12:02:18;21.70;95.60
40053;DHT22;25758;48.200;16.338;2023-05-07T12:04:44;21.80;95.60
40053;DHT22;25758;48.200;16.338;2023-05-07T12:07:16;21.80;95.60
40053;DHT22;25758;48.200;16.338;2023-05-07T12:09:47;21.80;95.80
40053;DHT22;25758;48.200;16.338;2023-05-07T12:12:13;21.80;95.70
40053;DHT22;25758;48.200;16.338;2023-05-07T12:14:44;21.80;95.50
40053;DHT22;25758;48.200;16.338;2023-05-07T12:17:11;21.70;95.00
40053;DHT22;25758;48.200;16.338;2023-05-07T12:19:39;21.70;94.90
40053;DHT22;25758;48.200;16.338;2023-05-07T12:22:07;21.60;95.20
40053;DHT22;25758;48.200;16.338;2023-05-07T12:24:56;21.60;95.50
40053;DHT22;25758;48.200;16.338;2023-05-07T12:27:22;21.50;95.40
40053;DHT22;25758;48.200;16.338;2023-05-07T12:29:49;21.40;95.80
40053;DHT22;25758;48.200;16.338;2023-05-07T12:32:16;21.30;95.90
40053;DHT22;25758;48.200;16.338;2023-05-07T12:34:43;21.30;95.80
40053;DHT22;25758;48.200;16.338;2023-05-07T12:37:09;21.30;95.70
40053;DHT22;25758;48.200;16.338;2023-05-07T12:39:35;21.20;95.70
40053;DHT22;25758;48.200;16.338;2023-05-07T12:42:01;21.20;95.80
40053;DHT22;25758;48.200;16.338;2023-05-07T12:44:31;21.20;95.80
40053;DHT22;25758;48.200;16.338;2023-05-07T12:46:58;21.20;95.80
40053;DHT22;25758;48.200;16.338;2023-05-07T12:49:23;21.20;96.20
40053;DHT22;25758;48.200;16.338;2023-05-07T12:51:50;21.20;96.20
40053;DHT22;25758;48.200;16.338;2023-05-07T12:57:21;21.10;96.10
40053;DHT22;25758;48.200;16.338;2023-05-07T12:59:46;21.10;96.40
40053;DHT22;25758;48.200;16.338;2023-05-07T13:02:12;21.00;96.20
40053;DHT22;25758;48.200;16.338;2023-05-07T13:04:38;20.90;96.30
40053;DHT22;25758;48.200;16.338;2023-05-07T13:07:03;21.00;96.00
40053;DHT22;25758;48.200;16.338;2023-05-07T13:09:29;21.00;95.80
40053;DHT22;25758;48.200;16.338;2023-05-07T13:11:56;20.90;95.30
40053;DHT22;25758;48.200;16.338;2023-05-07T13:14:21;21.00;95.50
40053;DHT22;25758;48.200;16.338;2023-05-07T13:16:47;21.00;95.40
40053;DHT22;25758;48.200;16.338;2023-05-07T13:19:13;21.00;95.40
40053;DHT22;25758;48.200;16.338;2023-05-07T13:21:39;21.10;95.60
40053;DHT22;25758;48.200;16.338;2023-05-07T13:24:05;21.10;96.10
40053;DHT22;25758;48.200;16.338;2023-05-07T13:26:31;21.10;95.60
40053;DHT22;25758;48.200;16.338;2023-05-07T13:28:57;21.10;95.30
40053;DHT22;25758;48.200;16.338;2023-05-07T13:31:22;21.10;95.10
40053;DHT22;25758;48.200;16.338;2023-05-07T13:33:48;21.00;95.10
40053;DHT22;25758;48.200;16.338;2023-05-07T13:36:14;21.00;95.00
40053;DHT22;25758;48.200;16.338;2023-05-07T13:38:40;21.00;95.00
40053;DHT22;25758;48.200;16.338;2023-05-07T13:41:06;21.00;95.00
40053;DHT22;25758;48.200;16.338;2023-05-07T13:43:31;21.00;95.20
40053;DHT22;25758;48.200;16.338;2023-05-07T13:45:59;21.10;95.10
40053;DHT22;25758;48.200;16.338;2023-05-07T13:48:24;19.80;94.80
40053;DHT22;25758;48.200;16.338;2023-05-07T13:50:50;21.10;95.20
40053;DHT22;25758;48.200;16.338;2023-05-07T13:53:16;21.00;94.80
40053;DHT22;25758;48.200;16.338;2023-05-07T13:55:43;21.00;95.00
40053;DHT22;25758;48.200;16.338;2023-05-07T13:58:09;21.00;94.60
40053;DHT22;25758;48.200;16.338;2023-05-07T14:00:35;21.00;94.40
40053;DHT22;25758;48.200;16.338;2023-05-07T14:03:01;21.00;94.60
40053;DHT22;25758;48.200;16.338;2023-05-07T14:05:26;21.00;94.40
40053;DHT22;25758;48.200;16.338;2023-05-07T14:07:57;21.10;94.30
40053;DHT22;25758;48.200;16.338;2023-05-07T14:10:22;21.10;94.50
40053;DHT22;25758;48.200;16.338;2023-05-07T14:12:48;21.10;93.90
40053;DHT22;25758;48.200;16.338;2023-05-07T14:15:14;21.00;93.90
40053;DHT22;25758;48.200;16.338;2023-05-07T14:17:41;21.00;93.90
40053;DHT22;25758;48.200;16.338;2023-05-07T14:20:07;20.90;94.10
40053;DHT22;25758;48.200;16.338;2023-05-07T14:22:33;20.90;93.90
40053;DHT22;25758;48.200;16.338;2023-05-07T14:24:58;20.90;93.60
40053;DHT22;25758;48.200;16.338;2023-05-07T14:27:24;20.90;93.90
40053;DHT22;25758;48.200;16.338;2023-05-07T14:29:50;20.80;94.00
40053;DHT22;25758;48.200;16.338;2023-05-07T14:32:19;20.80;94.20
40053;DHT22;25758;48.200;16.338;2023-05-07T14:34:45;20.70;93.80
40053;DHT22;25758;48.200;16.338;2023-05-07T14:37:11;20.70;93.70
40053;DHT22;25758;48.200;16.338;2023-05-07T14:39:36;20.70;93.40
40053;DHT22;25758;48.200;16.338;2023-05-07T14:42:02;20.60;93.30
40053;DHT22;25758;48.200;16.338;2023-05-07T14:44:28;20.60;93.50
40053;DHT22;25758;48.200;16.338;2023-05-07T14:46:54;20.60;94.00
40053;DHT22;25758;48.200;16.338;2023-05-07T14:49:19;20.50;94.30
40053;DHT22;25758;48.200;16.338;2023-05-07T14:51:45;20.50;94.50
40053;DHT22;25758;48.200;16.338;2023-05-07T14:54:13;20.40;94.60
40053;DHT22;25758;48.200;16.338;2023-05-07T14:56:39;20.40;94.60
40053;DHT22;25758;48.200;16.338;2023-05-07T14:59:05;20.40;94.60
40053;DHT22;25758;48.200;16.338;2023-05-07T15:01:31;20.30;94.60
40053;DHT22;25758;48.200;16.338;2023-05-07T15:03:56;20.30;94.80
40053;DHT22;25758;48.200;16.338;2023-05-07T15:06:22;20.30;94.80
40053;DHT22;25758;48.200;16.338;2023-05-07T15:08:48;20.30;94.80
40053;DHT22;25758;48.200;16.338;2023-05-07T15:11:14;20.30;94.80
40053;DHT22;25758;48.200;16.338;2023-05-07T15:13:41;20.20;94.90
40053;DHT22;25758;48.200;16.338;2023-05-07T15:16:07;20.20;95.00
40053;DHT22;25758;48.200;16.338;2023-05-07T15:18:32;20.20;94.80
40053;DHT22;25758;48.200;16.338;2023-05-07T15:20:58;20.20;94.80
40053;DHT22;25758;48.200;16.338;2023-05-07T15:23:24;20.10;94.70
40053;DHT22;25758;48.200;16.338;2023-05-07T15:25:49;20.10;94.70
40053;DHT22;25758;48.200;16.338;2023-05-07T15:28:15;20.10;94.70
40053;DHT22;25758;48.200;16.338;2023-05-07T15:30:41;20.10;94.60
40053;DHT22;25758;48.200;16.338;2023-05-07T15:33:06;20.00;94.60
40053;DHT22;25758;48.200;16.338;2023-05-07T15:35:32;20.00;94.60